Vision of The Seas — C6SE8 — position and weather

sailwx.info

Track history (hours):
 
Tides and Currents Weather Stations Pressure Air Temp Water Temp Dewpoint Dewpoint Depression Visibility Wind Speed Wind Dir Waves Ship Positions

Vision of The Seas

Operator: Royal Caribbean Cruises Ltd

Last reported at 2019-Apr-25 09:00 UTC. Time now 2019-Apr-25 10:14 UTC.
Position N 20°00' W 062°00'.

Type: Passenger vessel. MMSI: 311321000.

Wind from 060 at 2 knots

Barometer 1016.0 mb
Air temperature 23.0 ° C
Visibility: greater than 27.0 NM
Dewpoint 20.1 ° C

Date/timePositionNaut miles runAvg speedWind from/ knotsBaromVisibWave heightAir tempDewpointWater temp
2019-Apr-25 09:00N 20°00' W 062°00'9916.6 060 / 21016.027.0 23.020.1
2019-Apr-25 03:00N 19°00' W 063°24'9219.0 030 / 101015.010.8 25.025.0
2019-Apr-24 22:09N 18°13' W 064°47'317.8
2019-Apr-24 22:00N 18°13' W 064°50'917.5
2019-Apr-24 21:30N 18°16' W 064°58'4 8.5
2019-Apr-24 21:00N 18°20' W 064°57'0 0.3
2019-Apr-24 20:26N 18°20' W 064°57'0 0.0
2019-Apr-24 19:56N 18°20' W 064°57'0 0.0
2019-Apr-24 19:20N 18°20' W 064°57'0 0.0
2019-Apr-24 18:56N 18°20' W 064°57'0 0.0
2019-Apr-24 18:20N 18°20' W 064°57'0 0.0
2019-Apr-24 17:56N 18°20' W 064°57'0 0.0
2019-Apr-24 17:14N 18°20' W 064°57'0 0.0
2019-Apr-24 16:56N 18°20' W 064°57'0 0.0
2019-Apr-24 16:26N 18°20' W 064°57'0 0.0
2019-Apr-24 15:56N 18°20' W 064°57'0 0.0
2019-Apr-24 15:26N 18°20' W 064°57'0 0.0
2019-Apr-24 14:56N 18°20' W 064°57'0 0.0
2019-Apr-24 14:26N 18°20' W 064°57'0 0.0
2019-Apr-24 13:56N 18°20' W 064°57'0 0.0
2019-Apr-24 13:26N 18°20' W 064°57'0 0.0
2019-Apr-24 12:56N 18°20' W 064°57'0 0.0
2019-Apr-24 12:26N 18°20' W 064°57'0 0.0
2019-Apr-24 11:56N 18°20' W 064°57'0 0.0
2019-Apr-24 11:31N 18°20' W 064°57'2 4.5
2019-Apr-24 11:01N 18°18' W 064°59'5 9.3
2019-Apr-24 10:31N 18°18' W 065°04'510.5
2019-Apr-24 10:01N 18°21' W 065°08'510.8
2019-Apr-24 09:31N 18°25' W 065°12'510.4
2019-Apr-24 09:01N 18°29' W 065°16'510.3
2019-Apr-24 08:31N 18°33' W 065°20'510.7
2019-Apr-24 08:00N 18°37' W 065°23'510.3
2019-Apr-24 07:30N 18°38' W 065°29'510.5
2019-Apr-24 07:01N 18°39' W 065°34'510.4
2019-Apr-24 06:31N 18°40' W 065°39'510.8
2019-Apr-24 06:01N 18°41' W 065°45'510.6
2019-Apr-24 05:30N 18°39' W 065°50'510.0
2019-Apr-24 05:01N 18°37' W 065°55'610.1
2019-Apr-24 04:25N 18°35' W 066°01'9 8.5
2019-Apr-24 03:20N 18°28' W 066°08'1 2.4
2019-Apr-24 03:01N 18°28' W 066°07'0 0.0
2019-Apr-24 02:05N 18°28' W 066°07'0 0.0
2019-Apr-24 01:59N 18°28' W 066°07'0 0.0
2019-Apr-24 01:29N 18°28' W 066°07'0 0.0
2019-Apr-24 00:59N 18°28' W 066°07'0 0.0
2019-Apr-24 00:29N 18°28' W 066°07'0 0.0
2019-Apr-23 23:59N 18°28' W 066°07'0 0.0
2019-Apr-23 23:08N 18°28' W 066°07'0 0.0
2019-Apr-23 22:38N 18°28' W 066°07'0 0.0
2019-Apr-23 22:02N 18°28' W 066°07'0 0.0
2019-Apr-23 21:59N 18°28' W 066°07'0 0.0
2019-Apr-23 21:29N 18°28' W 066°07'0 0.0
2019-Apr-23 20:56N 18°28' W 066°07'0 0.0
2019-Apr-23 20:08N 18°28' W 066°07'0 0.0
2019-Apr-23 18:53N 18°28' W 066°07'0 0.0
2019-Apr-23 17:14N 18°28' W 066°07'0 0.0
2019-Apr-23 16:56N 18°28' W 066°07'1 2.1
2019-Apr-23 16:29N 18°28' W 066°08'10516.1
2019-Apr-23 10:00N 19°12' W 067°48'20720.7 080 / 151014.027.0 24.019.6
2019-Apr-23 00:00N 20°12' W 071°18'27519.6 110 / 201014.010.8 25.022.226.0
2019-Apr-22 10:00N 21°30' W 076°00'10621.2 070 / 161014.027.0 25.020.7
2019-Apr-22 05:00N 22°18' W 077°42'49519.8 040 / 221018.027.0 25.020.726.0
2019-Apr-21 04:00N 25°18' W 086°06'4039.8 300 / 141015.010.8 21.0
2019-Apr-21 03:00N 25°30' W 086°48'27016.9 310 / 151018.610.8 21.014.725.0
2019-Apr-20 11:00N 27°18' W 091°24'21117.6 340 / 171018.027.0 19.010.4
2019-Apr-19 22:59N 29°20' W 094°40'511.2
2019-Apr-19 22:30N 29°20' W 094°46'2 4.1
2019-Apr-19 22:00N 29°19' W 094°47'1 1.5
2019-Apr-19 21:30N 29°18' W 094°48'0 0.0
2019-Apr-19 21:00N 29°18' W 094°48'0 0.0
2019-Apr-19 20:30N 29°18' W 094°48'0 0.0
2019-Apr-19 19:45N 29°18' W 094°48'0 0.0
2019-Apr-19 19:30N 29°18' W 094°48'0 0.0
2019-Apr-19 19:00N 29°18' W 094°48'0 0.0
2019-Apr-19 18:30N 29°18' W 094°48'0 0.0
2019-Apr-19 17:57N 29°19' W 094°48'0 0.0
2019-Apr-19 17:30N 29°19' W 094°48'0 0.0
2019-Apr-19 17:00N 29°19' W 094°48'0 0.0
2019-Apr-19 16:27N 29°18' W 094°48'0 0.0
2019-Apr-19 16:00N 29°19' W 094°48'0 0.0
2019-Apr-19 15:27N 29°18' W 094°48'0 0.0
2019-Apr-19 14:57N 29°19' W 094°48'0 0.0
2019-Apr-19 13:57N 29°18' W 094°48'0 0.0
2019-Apr-19 13:27N 29°18' W 094°48'0 0.0
2019-Apr-19 13:00N 29°18' W 094°48'0 0.0
2019-Apr-19 12:30N 29°18' W 094°48'0 0.6
2019-Apr-19 12:00N 29°19' W 094°48'5 9.5
2019-Apr-19 11:31N 29°21' W 094°43'814.6
2019-Apr-19 10:59N 29°17' W 094°36'814.0
2019-Apr-19 10:24N 29°12' W 094°28'1818.7
2019-Apr-19 09:26N 29°02' W 094°10'10719.8
2019-Apr-19 04:00N 27°54' W 092°36'34420.2 290 / 241010.010.8 20.015.323.0
2019-Apr-18 11:00N 23°36' W 088°24'19719.3 130 / 171010.010.8 24.024.0
2019-Apr-18 00:46N 20°37' W 086°54'518.7
2019-Apr-18 00:30N 20°33' W 086°57'3 5.5
2019-Apr-18 00:00N 20°31' W 086°57'0 0.0
2019-Apr-17 23:30N 20°31' W 086°57'0 0.0
2019-Apr-17 23:00N 20°31' W 086°57'0 0.0
2019-Apr-17 22:30N 20°31' W 086°57'0 0.0
2019-Apr-17 22:00N 20°31' W 086°57'0 0.0
2019-Apr-17 21:27N 20°31' W 086°57'0 0.0
2019-Apr-17 21:00N 20°31' W 086°57'0 0.0
2019-Apr-17 20:30N 20°31' W 086°57'0 0.0
2019-Apr-17 20:00N 20°31' W 086°57'0 0.0
2019-Apr-17 19:30N 20°31' W 086°57'0 0.0
2019-Apr-17 19:00N 20°31' W 086°57'0 0.0
2019-Apr-17 18:30N 20°31' W 086°57'0 0.0
2019-Apr-17 18:00N 20°31' W 086°57'0 0.1
2019-Apr-17 17:30N 20°31' W 086°57'4 8.4
2019-Apr-17 17:00N 20°35' W 086°57'14017.4
2019-Apr-17 09:00N 22°48' W 087°42'47322.0 100 / 181015.010.8 25.022.2
2019-Apr-16 11:31N 28°39' W 093°35'020.9
2019-Apr-16 11:30N 28°39' W 093°35'1020.8
2019-Apr-16 11:00N 28°45' W 093°45'4233.1
2019-Apr-16 11:00N 28°42' W 093°42'1428.2 150 / 201017.010.8 17.013.723.0
2019-Apr-16 10:31N 28°51' W 093°54'1019.4
2019-Apr-16 09:59N 28°57' W 094°03'1019.5
2019-Apr-16 09:30N 29°02' W 094°12'1019.1
2019-Apr-16 08:59N 29°08' W 094°21'918.8
2019-Apr-16 08:30N 29°12' W 094°31'814.9
2019-Apr-16 08:00N 29°18' W 094°36'713.3
2019-Apr-16 07:30N 29°21' W 094°43'4 7.7
2019-Apr-16 07:00N 29°19' W 094°47'1 2.6
2019-Apr-16 06:30N 29°19' W 094°48'0 0.0
2019-Apr-16 06:00N 29°18' W 094°48'0 0.0
2019-Apr-16 05:30N 29°18' W 094°48'0 0.0
2019-Apr-16 05:00N 29°18' W 094°48'2 4.2
2019-Apr-16 04:30N 29°20' W 094°47'0 0.3
2019-Apr-16 03:03N 29°20' W 094°46'1 6.9
2019-Apr-16 02:53N 29°19' W 094°47'1 3.4
2019-Apr-16 02:28N 29°19' W 094°48'0 0.0
2019-Apr-16 01:58N 29°19' W 094°48'0 0.0
2019-Apr-16 01:25N 29°18' W 094°48'0 0.0
2019-Apr-16 00:58N 29°19' W 094°48'0 0.0
2019-Apr-16 00:28N 29°19' W 094°48'0 0.0
2019-Apr-15 23:55N 29°18' W 094°48'0 0.0
2019-Apr-15 23:28N 29°18' W 094°48'0 0.0
2019-Apr-15 22:58N 29°18' W 094°48'0 0.0
2019-Apr-15 22:28N 29°18' W 094°48'0 0.0
2019-Apr-15 21:58N 29°18' W 094°48'0 0.0
2019-Apr-15 21:25N 29°18' W 094°48'0 0.0
2019-Apr-15 20:58N 29°19' W 094°48'0 0.0
2019-Apr-15 20:28N 29°19' W 094°48'0 0.0
2019-Apr-15 19:58N 29°18' W 094°48'0 0.0
2019-Apr-15 19:28N 29°18' W 094°48'0 0.0
2019-Apr-15 18:55N 29°18' W 094°48'0 0.0
2019-Apr-15 18:28N 29°19' W 094°48'0 0.0
2019-Apr-15 17:58N 29°19' W 094°48'0 0.0
2019-Apr-15 17:28N 29°19' W 094°48'0 0.0
2019-Apr-15 16:58N 29°19' W 094°48'0 0.0
2019-Apr-15 16:28N 29°19' W 094°48'0 0.0
2019-Apr-15 15:58N 29°19' W 094°48'0 0.0
2019-Apr-15 15:28N 29°19' W 094°48'0 0.0
2019-Apr-15 14:58N 29°18' W 094°48'0 0.0
2019-Apr-15 14:25N 29°19' W 094°48'0 0.0
2019-Apr-15 13:46N 29°18' W 094°48'0 0.0
2019-Apr-15 13:28N 29°18' W 094°48'0 0.0
2019-Apr-15 12:58N 29°19' W 094°48'0 0.0
2019-Apr-15 12:28N 29°18' W 094°48'0 0.0
2019-Apr-15 12:00N 29°19' W 094°48'3 5.9
2019-Apr-15 11:31N 29°21' W 094°46'4017.1
2019-Apr-15 09:11N 28°60' W 094°07'1681.9
2019-Apr-15 09:00N 28°48' W 093°54'   210 / 41017.010.8 17.013.7
Track history (hours):
 
Tides and Currents Weather Stations Pressure Air Temp Water Temp Dewpoint Dewpoint Depression Visibility Wind Speed Wind Dir Waves Ship Positions

Vision of The Seas

Operator: Royal Caribbean Cruises Ltd

Last reported at 2019-Apr-25 09:00 UTC. Time now 2019-Apr-25 10:14 UTC.
Position N 20°00' W 062°00'.

Type: Passenger vessel. MMSI: 311321000.

Wind from 060 at 2 knots

Barometer 1016.0 mb
Air temperature 23.0 ° C
Visibility: greater than 27.0 NM
Dewpoint 20.1 ° C

Date/timePositionNaut miles runAvg speedWind from/ knotsBaromVisibWave heightAir tempDewpointWater temp
2019-Apr-25 09:00N 20°00' W 062°00'9916.6 060 / 21016.027.0 23.020.1
2019-Apr-25 03:00N 19°00' W 063°24'9219.0 030 / 101015.010.8 25.025.0
2019-Apr-24 22:09N 18°13' W 064°47'317.8
2019-Apr-24 22:00N 18°13' W 064°50'917.5
2019-Apr-24 21:30N 18°16' W 064°58'4 8.5
2019-Apr-24 21:00N 18°20' W 064°57'0 0.3
2019-Apr-24 20:26N 18°20' W 064°57'0 0.0
2019-Apr-24 19:56N 18°20' W 064°57'0 0.0
2019-Apr-24 19:20N 18°20' W 064°57'0 0.0
2019-Apr-24 18:56N 18°20' W 064°57'0 0.0
2019-Apr-24 18:20N 18°20' W 064°57'0 0.0
2019-Apr-24 17:56N 18°20' W 064°57'0 0.0
2019-Apr-24 17:14N 18°20' W 064°57'0 0.0
2019-Apr-24 16:56N 18°20' W 064°57'0 0.0
2019-Apr-24 16:26N 18°20' W 064°57'0 0.0
2019-Apr-24 15:56N 18°20' W 064°57'0 0.0
2019-Apr-24 15:26N 18°20' W 064°57'0 0.0
2019-Apr-24 14:56N 18°20' W 064°57'0 0.0
2019-Apr-24 14:26N 18°20' W 064°57'0 0.0
2019-Apr-24 13:56N 18°20' W 064°57'0 0.0
2019-Apr-24 13:26N 18°20' W 064°57'0 0.0
2019-Apr-24 12:56N 18°20' W 064°57'0 0.0
2019-Apr-24 12:26N 18°20' W 064°57'0 0.0
2019-Apr-24 11:56N 18°20' W 064°57'0 0.0
2019-Apr-24 11:31N 18°20' W 064°57'2 4.5
2019-Apr-24 11:01N 18°18' W 064°59'5 9.3
2019-Apr-24 10:31N 18°18' W 065°04'510.5
2019-Apr-24 10:01N 18°21' W 065°08'510.8
2019-Apr-24 09:31N 18°25' W 065°12'510.4
2019-Apr-24 09:01N 18°29' W 065°16'510.3
2019-Apr-24 08:31N 18°33' W 065°20'510.7
2019-Apr-24 08:00N 18°37' W 065°23'510.3
2019-Apr-24 07:30N 18°38' W 065°29'510.5
2019-Apr-24 07:01N 18°39' W 065°34'510.4
2019-Apr-24 06:31N 18°40' W 065°39'510.8
2019-Apr-24 06:01N 18°41' W 065°45'510.6
2019-Apr-24 05:30N 18°39' W 065°50'510.0
2019-Apr-24 05:01N 18°37' W 065°55'610.1
2019-Apr-24 04:25N 18°35' W 066°01'9 8.5
2019-Apr-24 03:20N 18°28' W 066°08'1 2.4
2019-Apr-24 03:01N 18°28' W 066°07'0 0.0
2019-Apr-24 02:05N 18°28' W 066°07'0 0.0
2019-Apr-24 01:59N 18°28' W 066°07'0 0.0
2019-Apr-24 01:29N 18°28' W 066°07'0 0.0
2019-Apr-24 00:59N 18°28' W 066°07'0 0.0
2019-Apr-24 00:29N 18°28' W 066°07'0 0.0
2019-Apr-23 23:59N 18°28' W 066°07'0 0.0
2019-Apr-23 23:08N 18°28' W 066°07'0 0.0
2019-Apr-23 22:38N 18°28' W 066°07'0 0.0
2019-Apr-23 22:02N 18°28' W 066°07'0 0.0
2019-Apr-23 21:59N 18°28' W 066°07'0 0.0
2019-Apr-23 21:29N 18°28' W 066°07'0 0.0
2019-Apr-23 20:56N 18°28' W 066°07'0 0.0
2019-Apr-23 20:08N 18°28' W 066°07'0 0.0
2019-Apr-23 18:53N 18°28' W 066°07'0 0.0
2019-Apr-23 17:14N 18°28' W 066°07'0 0.0
2019-Apr-23 16:56N 18°28' W 066°07'1 2.1
2019-Apr-23 16:29N 18°28' W 066°08'10516.1
2019-Apr-23 10:00N 19°12' W 067°48'20720.7 080 / 151014.027.0 24.019.6
2019-Apr-23 00:00N 20°12' W 071°18'27519.6 110 / 201014.010.8 25.022.226.0
2019-Apr-22 10:00N 21°30' W 076°00'10621.2 070 / 161014.027.0 25.020.7
2019-Apr-22 05:00N 22°18' W 077°42'49519.8 040 / 221018.027.0 25.020.726.0
2019-Apr-21 04:00N 25°18' W 086°06'4039.8 300 / 141015.010.8 21.0
2019-Apr-21 03:00N 25°30' W 086°48'27016.9 310 / 151018.610.8 21.014.725.0
2019-Apr-20 11:00N 27°18' W 091°24'21117.6 340 / 171018.027.0 19.010.4
2019-Apr-19 22:59N 29°20' W 094°40'511.2
2019-Apr-19 22:30N 29°20' W 094°46'2 4.1
2019-Apr-19 22:00N 29°19' W 094°47'1 1.5
2019-Apr-19 21:30N 29°18' W 094°48'0 0.0
2019-Apr-19 21:00N 29°18' W 094°48'0 0.0
2019-Apr-19 20:30N 29°18' W 094°48'0 0.0
2019-Apr-19 19:45N 29°18' W 094°48'0 0.0
2019-Apr-19 19:30N 29°18' W 094°48'0 0.0
2019-Apr-19 19:00N 29°18' W 094°48'0 0.0
2019-Apr-19 18:30N 29°18' W 094°48'0 0.0
2019-Apr-19 17:57N 29°19' W 094°48'0 0.0
2019-Apr-19 17:30N 29°19' W 094°48'0 0.0
2019-Apr-19 17:00N 29°19' W 094°48'0 0.0
2019-Apr-19 16:27N 29°18' W 094°48'0 0.0
2019-Apr-19 16:00N 29°19' W 094°48'0 0.0
2019-Apr-19 15:27N 29°18' W 094°48'0 0.0
2019-Apr-19 14:57N 29°19' W 094°48'0 0.0
2019-Apr-19 13:57N 29°18' W 094°48'0 0.0
2019-Apr-19 13:27N 29°18' W 094°48'0 0.0
2019-Apr-19 13:00N 29°18' W 094°48'0 0.0
2019-Apr-19 12:30N 29°18' W 094°48'0 0.6
2019-Apr-19 12:00N 29°19' W 094°48'5 9.5
2019-Apr-19 11:31N 29°21' W 094°43'814.6
2019-Apr-19 10:59N 29°17' W 094°36'814.0
2019-Apr-19 10:24N 29°12' W 094°28'1818.7
2019-Apr-19 09:26N 29°02' W 094°10'10719.8
2019-Apr-19 04:00N 27°54' W 092°36'34420.2 290 / 241010.010.8 20.015.323.0
2019-Apr-18 11:00N 23°36' W 088°24'19719.3 130 / 171010.010.8 24.024.0
2019-Apr-18 00:46N 20°37' W 086°54'518.7
2019-Apr-18 00:30N 20°33' W 086°57'3 5.5
2019-Apr-18 00:00N 20°31' W 086°57'0 0.0
2019-Apr-17 23:30N 20°31' W 086°57'0 0.0
2019-Apr-17 23:00N 20°31' W 086°57'0 0.0
2019-Apr-17 22:30N 20°31' W 086°57'0 0.0
2019-Apr-17 22:00N 20°31' W 086°57'0 0.0
2019-Apr-17 21:27N 20°31' W 086°57'0 0.0
2019-Apr-17 21:00N 20°31' W 086°57'0 0.0
2019-Apr-17 20:30N 20°31' W 086°57'0 0.0
2019-Apr-17 20:00N 20°31' W 086°57'0 0.0
2019-Apr-17 19:30N 20°31' W 086°57'0 0.0
2019-Apr-17 19:00N 20°31' W 086°57'0 0.0
2019-Apr-17 18:30N 20°31' W 086°57'0 0.0
2019-Apr-17 18:00N 20°31' W 086°57'0 0.1
2019-Apr-17 17:30N 20°31' W 086°57'4 8.4
2019-Apr-17 17:00N 20°35' W 086°57'14017.4
2019-Apr-17 09:00N 22°48' W 087°42'47322.0 100 / 181015.010.8 25.022.2
2019-Apr-16 11:31N 28°39' W 093°35'020.9
2019-Apr-16 11:30N 28°39' W 093°35'1020.8
2019-Apr-16 11:00N 28°45' W 093°45'4233.1
2019-Apr-16 11:00N 28°42' W 093°42'1428.2 150 / 201017.010.8 17.013.723.0
2019-Apr-16 10:31N 28°51' W 093°54'1019.4
2019-Apr-16 09:59N 28°57' W 094°03'1019.5
2019-Apr-16 09:30N 29°02' W 094°12'1019.1
2019-Apr-16 08:59N 29°08' W 094°21'918.8
2019-Apr-16 08:30N 29°12' W 094°31'814.9
2019-Apr-16 08:00N 29°18' W 094°36'713.3
2019-Apr-16 07:30N 29°21' W 094°43'4 7.7
2019-Apr-16 07:00N 29°19' W 094°47'1 2.6
2019-Apr-16 06:30N 29°19' W 094°48'0 0.0
2019-Apr-16 06:00N 29°18' W 094°48'0 0.0
2019-Apr-16 05:30N 29°18' W 094°48'0 0.0
2019-Apr-16 05:00N 29°18' W 094°48'2 4.2
2019-Apr-16 04:30N 29°20' W 094°47'0 0.3
2019-Apr-16 03:03N 29°20' W 094°46'1 6.9
2019-Apr-16 02:53N 29°19' W 094°47'1 3.4
2019-Apr-16 02:28N 29°19' W 094°48'0 0.0
2019-Apr-16 01:58N 29°19' W 094°48'0 0.0
2019-Apr-16 01:25N 29°18' W 094°48'0 0.0
2019-Apr-16 00:58N 29°19' W 094°48'0 0.0
2019-Apr-16 00:28N 29°19' W 094°48'0 0.0
2019-Apr-15 23:55N 29°18' W 094°48'0 0.0
2019-Apr-15 23:28N 29°18' W 094°48'0 0.0
2019-Apr-15 22:58N 29°18' W 094°48'0 0.0
2019-Apr-15 22:28N 29°18' W 094°48'0 0.0
2019-Apr-15 21:58N 29°18' W 094°48'0 0.0
2019-Apr-15 21:25N 29°18' W 094°48'0 0.0
2019-Apr-15 20:58N 29°19' W 094°48'0 0.0
2019-Apr-15 20:28N 29°19' W 094°48'0 0.0
2019-Apr-15 19:58N 29°18' W 094°48'0 0.0
2019-Apr-15 19:28N 29°18' W 094°48'0 0.0
2019-Apr-15 18:55N 29°18' W 094°48'0 0.0
2019-Apr-15 18:28N 29°19' W 094°48'0 0.0
2019-Apr-15 17:58N 29°19' W 094°48'0 0.0
2019-Apr-15 17:28N 29°19' W 094°48'0 0.0
2019-Apr-15 16:58N 29°19' W 094°48'0 0.0
2019-Apr-15 16:28N 29°19' W 094°48'0 0.0
2019-Apr-15 15:58N 29°19' W 094°48'0 0.0
2019-Apr-15 15:28N 29°19' W 094°48'0 0.0
2019-Apr-15 14:58N 29°18' W 094°48'0 0.0
2019-Apr-15 14:25N 29°19' W 094°48'0 0.0
2019-Apr-15 13:46N 29°18' W 094°48'0 0.0
2019-Apr-15 13:28N 29°18' W 094°48'0 0.0
2019-Apr-15 12:58N 29°19' W 094°48'0 0.0
2019-Apr-15 12:28N 29°18' W 094°48'0 0.0
2019-Apr-15 12:00N 29°19' W 094°48'3 5.9
2019-Apr-15 11:31N 29°21' W 094°46'4017.1
2019-Apr-15 09:11N 28°60' W 094°07'1681.9
2019-Apr-15 09:00N 28°48' W 093°54'   210 / 41017.010.8 17.013.7

Dump ship's entire track history